Time;durP1;ratioP1;P1;durP2;ratioP2;P2;SDS_P1;SDS_P2;PMS_P1;PMS_P2;Temp;Humidity;BMP_temperature;BMP_pressure;BME280_temperature;BME280_humidity;BME280_pressure;Samples;Min_cycle;Max_cycle;Signal;HPM_P1;HPM_P2
2023/01/23 00:00:38;;;;;;;5.72;4.25;;;;;;;16.79;41.53;103490.34;5027013;28;20033;-59
2023/01/23 00:03:03;;;;;;;7.80;4.57;;;;;;;16.78;41.48;103491.31;5027130;28;20261;-59
2023/01/23 00:05:28;;;;;;;5.72;4.22;;;;;;;16.77;41.43;103486.00;5027026;28;20741;-58
2023/01/23 00:07:54;;;;;;;5.57;4.15;;;;;;;16.73;41.52;103488.00;5026934;28;20028;-54
2023/01/23 00:10:19;;;;;;;5.50;4.20;;;;;;;16.78;41.59;103496.69;5026144;28;20033;-59
2023/01/23 00:12:45;;;;;;;5.90;4.10;;;;;;;16.78;41.62;103491.31;5027144;28;20021;-59
2023/01/23 00:15:11;;;;;;;5.00;3.85;;;;;;;16.77;41.37;103497.63;5027042;28;20032;-60
2023/01/23 00:17:39;;;;;;;5.82;3.90;;;;;;;16.72;41.60;103494.31;5026516;28;20049;-59
2023/01/23 00:20:05;;;;;;;6.43;4.22;;;;;;;16.77;41.53;103505.69;5026887;28;20026;-59
2023/01/23 00:22:30;;;;;;;5.15;4.13;;;;;;;16.77;41.52;103507.50;5026403;28;20060;-59
2023/01/23 00:24:56;;;;;;;5.85;4.13;;;;;;;16.76;41.72;103514.72;5009029;28;20116;-59
2023/01/23 00:27:21;;;;;;;5.20;3.80;;;;;;;16.76;41.38;103505.78;5026698;28;20048;-59
2023/01/23 00:29:46;;;;;;;5.63;3.83;;;;;;;16.77;41.62;103507.50;5026724;28;20040;-59
2023/01/23 00:32:12;;;;;;;5.65;3.88;;;;;;;16.77;41.72;103510.19;5026583;28;20025;-59
2023/01/23 00:34:37;;;;;;;5.70;3.78;;;;;;;16.76;41.63;103514.72;5026304;28;20041;-59
2023/01/23 00:37:03;;;;;;;7.28;4.20;;;;;;;16.75;41.53;103507.59;5026777;28;20391;-60
2023/01/23 00:39:28;;;;;;;6.07;4.07;;;;;;;16.73;41.68;103499.63;5026262;28;20121;-60
2023/01/23 00:41:53;;;;;;;5.45;3.88;;;;;;;16.74;41.39;103500.50;5008575;28;20145;-58
2023/01/23 00:44:19;;;;;;;4.47;3.58;;;;;;;16.72;41.51;103495.22;5026401;28;20038;-59
2023/01/23 00:46:44;;;;;;;5.47;4.00;;;;;;;16.68;41.70;103485.56;5025985;28;20072;-59
2023/01/23 00:49:10;;;;;;;5.68;3.78;;;;;;;16.73;41.59;103502.31;5026009;28;20030;-53
2023/01/23 00:51:35;;;;;;;4.47;3.80;;;;;;;16.73;41.62;103502.31;5026217;28;20041;-59
2023/01/23 00:54:00;;;;;;;4.40;3.35;;;;;;;16.71;41.58;103493.47;5026376;28;20036;-59
2023/01/23 00:56:26;;;;;;;5.68;3.85;;;;;;;16.71;41.73;103493.47;5026022;28;20029;-59
2023/01/23 00:58:51;;;;;;;5.32;4.25;;;;;;;16.73;41.64;103496.06;5026169;28;20483;-59
2023/01/23 01:01:17;;;;;;;4.32;3.40;;;;;;;16.68;41.71;103492.78;5026057;28;20041;-59
2023/01/23 01:03:43;;;;;;;5.38;3.85;;;;;;;16.73;41.31;103502.31;5025746;28;20045;-60
2023/01/23 01:06:09;;;;;;;5.00;3.55;;;;;;;16.72;41.72;103507.75;5026087;28;20021;-60
2023/01/23 01:08:35;;;;;;;5.03;3.33;;;;;;;16.73;41.54;103504.13;5026059;28;20026;-59
2023/01/23 01:11:00;;;;;;;5.15;3.88;;;;;;;16.73;41.45;103506.81;5026054;28;20462;-60
2023/01/23 01:13:26;;;;;;;5.38;3.40;;;;;;;16.72;41.66;103511.31;5026081;28;20030;-60
2023/01/23 01:15:52;;;;;;;5.50;3.30;;;;;;;16.71;41.58;103512.25;5025713;28;20085;-60
2023/01/23 01:18:18;;;;;;;5.65;3.20;;;;;;;16.72;41.66;103513.13;5025596;28;20038;-60
2023/01/23 01:20:44;;;;;;;3.92;3.30;;;;;;;16.71;41.57;103517.63;5025516;28;20022;-60
2023/01/23 01:23:10;;;;;;;5.32;3.42;;;;;;;16.68;41.54;103508.88;5025571;28;20022;-58
2023/01/23 01:25:35;;;;;;;4.75;3.20;;;;;;;16.72;41.66;103521.19;5025673;28;20026;-60
2023/01/23 01:28:01;;;;;;;4.85;3.53;;;;;;;16.67;41.66;103516.09;5025802;28;20379;-60
2023/01/23 01:30:26;;;;;;;4.53;3.28;;;;;;;16.72;41.62;103522.06;5025833;28;20045;-51
2023/01/23 01:32:53;;;;;;;5.75;3.10;;;;;;;16.71;41.50;103514.94;5025646;28;20026;-59
2023/01/23 01:35:18;;;;;;;6.53;4.10;;;;;;;16.71;41.50;103508.72;5025510;28;20037;-60
2023/01/23 01:37:44;;;;;;;4.00;3.17;;;;;;;16.71;41.59;103514.94;5025575;28;20087;-60
2023/01/23 01:40:16;;;;;;;4.60;3.50;;;;;;;16.71;41.82;103511.41;5025228;28;20054;-60
2023/01/23 01:42:48;;;;;;;4.72;4.03;;;;;;;16.72;41.70;103513.13;5025690;28;20075;-60
2023/01/23 01:46:08;;;;;;;6.93;4.25;;;;;;;16.71;41.62;103516.78;5007695;28;20064;-59
2023/01/23 01:48:55;;;;;;;5.15;3.20;;;;;;;16.71;41.75;103517.63;4907276;29;20040;-60
2023/01/23 01:51:29;;;;;;;3.95;2.97;;;;;;;16.64;41.76;103499.28;4907233;29;20036;-59
2023/01/23 01:54:01;;;;;;;3.63;3.10;;;;;;;16.70;41.63;103509.69;4891722;29;20028;-60
2023/01/23 01:56:28;;;;;;;4.53;3.08;;;;;;;16.70;41.87;103510.53;4907243;29;20113;-59
2023/01/23 01:58:53;;;;;;;4.45;3.15;;;;;;;16.70;41.80;103515.06;4907172;29;20048;-59
2023/01/23 02:01:19;;;;;;;5.03;3.58;;;;;;;16.66;41.86;103508.13;4907124;29;20032;-60
2023/01/23 02:03:44;;;;;;;5.15;3.67;;;;;;;16.69;41.68;103515.97;4913585;29;20032;-59
2023/01/23 02:06:10;;;;;;;3.85;2.90;;;;;;;16.69;41.66;103513.28;4926323;29;20032;-59
2023/01/23 02:08:52;;;;;;;3.85;3.45;;;;;;;16.70;41.67;103515.06;4925955;29;20040;-60
2023/01/23 02:11:18;;;;;;;5.35;3.50;;;;;;;16.68;41.74;103523.19;4910476;29;20064;-60
2023/01/23 02:13:44;;;;;;;3.90;3.05;;;;;;;16.68;41.71;103517.81;4926261;29;20028;-59
2023/01/23 02:16:21;;;;;;;4.57;2.78;;;;;;;16.69;41.78;103522.25;4925882;29;20090;-59
2023/01/23 02:18:49;;;;;;;4.40;3.42;;;;;;;16.67;41.81;103518.78;4910222;29;20051;-60
2023/01/23 02:21:16;;;;;;;3.40;2.67;;;;;;;16.68;41.57;103517.81;4917803;28;20035;-60
2023/01/23 02:24:16;;;;;;;3.55;2.75;;;;;;;16.68;41.73;103517.81;4987769;28;20326;-59
2023/01/23 02:26:43;;;;;;;3.85;3.05;;;;;;;16.69;41.80;103530.31;5008291;28;20045;-59
2023/01/23 02:29:10;;;;;;;4.00;2.80;;;;;;;16.68;41.74;103527.69;5024904;28;20025;-59
2023/01/23 02:31:36;;;;;;;4.30;2.42;;;;;;;16.59;41.79;103504.06;5024906;28;20069;-60
2023/01/23 02:34:02;;;;;;;3.40;2.88;;;;;;;16.68;41.75;103533.06;5010268;28;20029;-60
2023/01/23 02:36:32;;;;;;;3.83;2.67;;;;;;;16.69;41.66;103522.25;5028821;28;20109;-60
2023/01/23 02:39:02;;;;;;;4.13;2.70;;;;;;;16.69;41.78;103524.94;5028799;28;20025;-60
2023/01/23 02:41:30;;;;;;;4.60;3.05;;;;;;;16.68;41.72;103525.88;5028669;28;20060;-59
2023/01/23 02:43:58;;;;;;;3.60;3.07;;;;;;;16.69;41.85;103532.09;5028856;28;20049;-60
2023/01/23 02:46:24;;;;;;;3.90;2.53;;;;;;;16.66;41.66;103535.00;5028564;28;20274;-59
2023/01/23 02:48:49;;;;;;;4.20;2.50;;;;;;;16.69;41.83;103538.38;5028623;28;20018;-59
2023/01/23 02:51:16;;;;;;;3.05;2.53;;;;;;;16.70;41.81;103536.53;5028687;28;20026;-59
2023/01/23 02:53:42;;;;;;;4.18;2.50;;;;;;;16.69;41.71;103543.75;5011272;28;20114;-60
2023/01/23 02:56:07;;;;;;;3.55;2.83;;;;;;;16.69;41.69;103546.44;5028417;28;20021;-59
2023/01/23 03:01:16;;;;;;;3.03;2.40;;;;;;;16.60;41.66;103540.69;5028541;28;20036;-59
2023/01/23 03:03:42;;;;;;;3.17;2.35;;;;;;;16.70;41.72;103552.66;5028055;28;20614;-59
2023/01/23 03:06:07;;;;;;;2.65;2.25;;;;;;;16.68;41.74;103552.72;5028395;28;20029;-59
2023/01/23 03:08:35;;;;;;;3.90;2.75;;;;;;;16.69;41.71;103556.28;5028354;28;20417;-59
2023/01/23 03:11:02;;;;;;;3.03;2.33;;;;;;;16.68;41.66;103544.66;5028125;28;20039;-59
2023/01/23 03:13:28;;;;;;;2.58;2.30;;;;;;;16.69;41.67;103541.06;5010730;28;20052;-59
2023/01/23 03:15:55;;;;;;;4.60;2.78;;;;;;;16.69;41.67;103537.47;5028227;28;20018;-59
2023/01/23 03:18:20;;;;;;;3.70;2.53;;;;;;;16.69;41.89;103546.44;5027909;28;20018;-59
2023/01/23 03:20:45;;;;;;;3.40;2.40;;;;;;;16.69;41.75;103545.53;5028196;28;20032;-59
2023/01/23 03:23:10;;;;;;;4.57;2.70;;;;;;;16.68;41.72;103543.81;5028132;28;20025;-59
2023/01/23 03:25:36;;;;;;;3.10;2.22;;;;;;;16.68;41.66;103544.66;5027866;28;20033;-59
2023/01/23 03:28:02;;;;;;;3.60;2.50;;;;;;;16.61;41.69;103537.06;5010511;28;20026;-59
2023/01/23 03:30:27;;;;;;;3.00;2.50;;;;;;;16.69;41.81;103558.97;5027961;28;20036;-59
2023/01/23 03:32:52;;;;;;;4.22;2.75;;;;;;;16.68;41.91;103559.94;5027828;28;20126;-59
2023/01/23 03:35:21;;;;;;;4.20;2.60;;;;;;;16.67;41.71;103556.38;5027435;28;20033;-59
2023/01/23 03:37:48;;;;;;;3.45;2.50;;;;;;;16.66;41.79;103556.47;5027535;28;20022;-59
2023/01/23 03:43:08;;;;;;;2.72;2.47;;;;;;;16.69;41.78;103561.66;5027674;28;20083;-59
2023/01/23 03:45:33;;;;;;;3.08;2.40;;;;;;;16.69;41.92;103554.47;5025829;28;20030;-59
2023/01/23 03:47:59;;;;;;;4.18;2.28;;;;;;;16.68;41.71;103557.25;5027293;28;20022;-59
2023/01/23 03:50:24;;;;;;;2.92;2.20;;;;;;;16.68;41.65;103554.56;5027488;28;20030;-59
2023/01/23 03:52:49;;;;;;;4.03;2.20;;;;;;;16.67;41.78;103545.63;5027364;28;20030;-58
2023/01/23 03:55:14;;;;;;;2.70;2.40;;;;;;;16.69;41.79;103550.91;5027532;28;20030;-60
2023/01/23 03:57:40;;;;;;;4.38;2.55;;;;;;;16.68;41.79;103544.66;5027364;28;20026;-60
2023/01/23 04:00:06;;;;;;;3.70;3.05;;;;;;;16.67;41.82;103544.78;5027365;28;20022;-59
2023/01/23 04:02:32;;;;;;;3.00;2.33;;;;;;;16.68;41.88;103549.19;5027208;28;20057;-59
2023/01/23 04:04:57;;;;;;;4.03;2.67;;;;;;;16.67;41.69;103548.31;5026966;28;20040;-59
2023/01/23 04:07:22;;;;;;;3.65;2.35;;;;;;;16.67;41.92;103550.16;5027115;28;20089;-59
2023/01/23 04:09:47;;;;;;;3.10;2.20;;;;;;;16.68;41.77;103549.19;5027138;28;20032;-60
2023/01/23 04:12:13;;;;;;;3.17;2.13;;;;;;;16.68;41.78;103550.03;5027030;28;20463;-59
2023/01/23 04:14:39;;;;;;;4.57;2.65;;;;;;;16.65;41.81;103541.28;5027206;28;20025;-59
2023/01/23 04:17:06;;;;;;;3.50;2.33;;;;;;;16.63;41.81;103546.75;5009478;28;20026;-59
2023/01/23 04:19:32;;;;;;;3.30;2.75;;;;;;;16.66;41.66;103549.28;5027173;28;20049;-60
2023/01/23 04:21:57;;;;;;;2.55;2.28;;;;;;;16.68;41.75;103547.34;5026907;28;20022;-60
2023/01/23 04:24:22;;;;;;;2.90;2.42;;;;;;;16.68;41.84;103557.25;5026859;28;20057;-58
2023/01/23 04:26:48;;;;;;;3.10;2.08;;;;;;;16.68;41.86;103555.41;5026963;28;20045;-58
2023/01/23 04:29:13;;;;;;;3.63;2.15;;;;;;;16.69;41.70;103558.97;5026797;28;20026;-60
2023/01/23 04:31:38;;;;;;;2.65;2.15;;;;;;;16.69;41.74;103559.84;5026720;28;20079;-60
2023/01/23 04:34:04;;;;;;;3.78;2.70;;;;;;;16.64;41.87;103547.63;5026750;28;20022;-54
2023/01/23 04:36:29;;;;;;;2.65;1.90;;;;;;;16.67;41.80;103551.00;5026460;28;20041;-59
2023/01/23 04:38:55;;;;;;;2.70;2.25;;;;;;;16.66;41.73;103554.66;5026508;28;20080;-59
2023/01/23 04:41:22;;;;;;;3.80;2.63;;;;;;;16.68;41.77;103567.97;5008748;28;20116;-60
2023/01/23 04:43:48;;;;;;;2.60;2.13;;;;;;;16.68;41.90;103567.97;5026601;28;20040;-60
2023/01/23 04:46:13;;;;;;;2.65;2.10;;;;;;;16.68;41.87;103563.47;5026345;28;20026;-60
2023/01/23 04:48:38;;;;;;;3.60;2.15;;;;;;;16.69;41.78;103564.34;5025881;28;20072;-58
2023/01/23 04:51:04;;;;;;;2.45;2.25;;;;;;;16.68;41.90;103555.41;5026407;28;20041;-59
2023/01/23 04:53:29;;;;;;;2.90;2.38;;;;;;;16.68;41.68;103555.41;5026479;28;20081;-60
2023/01/23 04:55:54;;;;;;;3.03;2.63;;;;;;;16.69;41.73;103567.03;5025914;28;20030;-58
2023/01/23 04:58:20;;;;;;;3.05;2.17;;;;;;;16.68;41.81;103563.47;5008849;28;20025;-59
2023/01/23 05:00:45;;;;;;;3.45;2.42;;;;;;;16.69;41.80;103567.91;5025776;28;20058;-60
2023/01/23 05:03:11;;;;;;;2.40;2.10;;;;;;;16.68;41.64;103574.22;5022809;28;20128;-60
2023/01/23 05:05:36;;;;;;;2.38;2.03;;;;;;;16.68;41.72;103567.97;5025569;28;20026;-60
2023/01/23 05:08:01;;;;;;;4.05;2.33;;;;;;;16.69;41.69;103584.03;5022782;28;20044;-60
2023/01/23 05:10:26;;;;;;;2.42;2.10;;;;;;;16.69;41.92;103585.81;5013126;28;20114;-60
2023/01/23 05:12:52;;;;;;;2.47;2.22;;;;;;;16.68;41.65;103582.28;5013042;28;20463;-60
2023/01/23 05:15:17;;;;;;;3.10;2.30;;;;;;;16.68;41.86;103587.66;5012788;28;20046;-59
2023/01/23 05:17:42;;;;;;;2.30;2.10;;;;;;;16.63;41.77;103587.06;5019590;28;20023;-59
2023/01/23 05:20:08;;;;;;;3.22;1.98;;;;;;;16.68;41.84;103598.41;4988767;28;20041;-59
2023/01/23 05:22:34;;;;;;;2.75;2.25;;;;;;;16.68;41.75;103595.72;5010052;28;20026;-60
2023/01/23 05:24:59;;;;;;;2.60;2.13;;;;;;;16.67;41.68;103591.31;5025557;28;20037;-60
2023/01/23 05:27:24;;;;;;;6.68;2.53;;;;;;;16.69;41.68;103591.19;5013178;28;20026;-59
2023/01/23 05:29:50;;;;;;;2.83;2.00;;;;;;;16.69;41.72;103593.88;5012554;28;20109;-58
2023/01/23 05:32:15;;;;;;;2.70;1.83;;;;;;;16.69;41.99;103601.94;5012556;28;20037;-59
2023/01/23 05:34:40;;;;;;;3.30;2.47;;;;;;;16.68;41.67;103600.22;5019291;28;20422;-60
2023/01/23 05:37:06;;;;;;;2.83;2.28;;;;;;;16.67;41.91;103596.66;5016654;28;20069;-56
2023/01/23 05:39:31;;;;;;;2.88;1.90;;;;;;;16.63;41.58;103600.50;5011329;28;20022;-58
2023/01/23 05:41:57;;;;;;;4.72;2.30;;;;;;;16.68;41.79;103611.81;5025066;28;20097;-59
2023/01/23 05:44:22;;;;;;;3.90;1.95;;;;;;;16.68;41.83;103610.97;5011267;28;20058;-60
2023/01/23 05:46:47;;;;;;;2.58;2.08;;;;;;;16.67;41.67;103611.94;5007438;28;20025;-60
2023/01/23 05:49:12;;;;;;;2.70;2.10;;;;;;;16.52;41.79;103583.25;5016738;28;20119;-59
2023/01/23 05:51:38;;;;;;;2.72;1.90;;;;;;;16.69;41.94;103620.75;5009819;28;20036;-60
2023/01/23 05:54:03;;;;;;;3.58;1.90;;;;;;;16.70;42.00;103614.44;5022429;28;20077;-60
2023/01/23 05:56:29;;;;;;;4.55;2.50;;;;;;;16.72;42.02;103615.22;5022349;28;20029;-60
2023/01/23 05:58:54;;;;;;;2.65;1.98;;;;;;;16.71;42.21;103608.13;5024025;28;20029;-60
2023/01/23 06:01:20;;;;;;;2.47;2.10;;;;;;;16.72;42.22;103615.22;5018905;28;20029;-60
2023/01/23 06:03:46;;;;;;;3.33;2.38;;;;;;;16.73;42.11;103619.66;5022285;28;20022;-59
2023/01/23 06:06:11;;;;;;;2.78;2.15;;;;;;;16.73;41.97;103620.50;5022123;28;20097;-60
2023/01/23 06:08:37;;;;;;;3.70;2.22;;;;;;;16.73;41.99;103616.97;5019408;28;20025;-60
2023/01/23 06:11:02;;;;;;;3.10;2.10;;;;;;;16.74;41.95;103613.34;5022788;28;20033;-60
2023/01/23 06:13:28;;;;;;;2.80;2.38;;;;;;;16.75;42.00;103617.75;5022171;28;20018;-60
2023/01/23 06:15:54;;;;;;;2.05;1.85;;;;;;;16.76;42.03;103619.47;5022868;28;20648;-57
2023/01/23 06:18:19;;;;;;;3.88;2.42;;;;;;;16.76;42.39;103613.25;5023114;28;20022;-59
2023/01/23 06:20:45;;;;;;;5.43;2.50;;;;;;;16.77;42.63;103615.84;5005630;28;20014;-60
2023/01/23 06:23:10;;;;;;;3.28;2.20;;;;;;;16.79;42.88;103607.72;5016085;28;20021;-60
2023/01/23 06:25:36;;;;;;;2.97;2.45;;;;;;;16.77;43.01;103605.09;5016378;28;20033;-60
2023/01/23 06:28:02;;;;;;;4.45;2.50;;;;;;;16.82;42.87;103610.19;5019785;28;20040;-60
2023/01/23 06:30:27;;;;;;;3.55;2.72;;;;;;;16.80;43.01;103607.59;5023451;28;20038;-60
2023/01/23 06:32:53;;;;;;;5.90;3.22;;;;;;;16.82;43.09;103608.41;5021850;28;20077;-60
2023/01/23 06:35:18;;;;;;;3.30;2.72;;;;;;;16.82;42.96;103610.19;5022122;28;20040;-60
2023/01/23 06:37:43;;;;;;;4.25;3.03;;;;;;;16.81;43.12;103613.84;5020845;28;20103;-54
2023/01/23 06:40:12;;;;;;;3.58;2.78;;;;;;;16.85;43.38;103618.09;5021353;28;20042;-60
2023/01/23 06:42:38;;;;;;;3.13;2.70;;;;;;;16.85;43.18;103618.94;5018083;28;20021;-60
2023/01/23 06:45:04;;;;;;;3.47;2.92;;;;;;;16.85;43.30;103623.47;5022279;28;20014;-60
2023/01/23 06:47:29;;;;;;;3.95;3.03;;;;;;;16.85;43.14;103620.78;5021412;28;20042;-59
2023/01/23 06:49:55;;;;;;;5.10;3.72;;;;;;;16.88;43.30;103632.22;5023207;28;20038;-59
2023/01/23 06:52:21;;;;;;;4.70;2.97;;;;;;;16.86;43.30;103619.81;5023731;28;20081;-59
2023/01/23 06:54:46;;;;;;;3.75;3.10;;;;;;;16.89;43.25;103636.63;5018066;28;20391;-60
2023/01/23 06:57:12;;;;;;;4.00;3.10;;;;;;;16.90;43.15;103637.50;5020927;28;20083;-60
2023/01/23 06:59:37;;;;;;;4.00;3.08;;;;;;;16.88;43.20;103640.28;5018484;28;20025;-60
2023/01/23 07:02:02;;;;;;;3.75;2.65;;;;;;;16.91;43.18;103640.09;5022164;28;20029;-60
2023/01/23 07:04:28;;;;;;;3.80;3.45;;;;;;;16.92;43.12;103639.16;5022604;28;20029;-60
2023/01/23 07:06:53;;;;;;;3.30;3.00;;;;;;;16.89;43.32;103638.44;5016461;28;20104;-60
2023/01/23 07:09:18;;;;;;;4.60;3.33;;;;;;;16.92;43.39;103649.03;5023060;28;20034;-60
2023/01/23 07:11:43;;;;;;;4.60;2.95;;;;;;;16.92;43.59;103657.09;5023662;28;20026;-60
2023/01/23 07:14:09;;;;;;;5.25;3.13;;;;;;;16.92;43.58;103649.91;5023574;28;20128;-61
2023/01/23 07:16:35;;;;;;;3.47;3.05;;;;;;;16.93;43.38;103653.44;5023017;28;20081;-59
2023/01/23 07:19:01;;;;;;;4.00;2.90;;;;;;;16.95;43.46;103675.75;5023843;28;20021;-60
2023/01/23 07:21:26;;;;;;;4.25;3.17;;;;;;;16.91;43.34;103668.81;5025537;28;20030;-60
2023/01/23 07:23:51;;;;;;;4.40;3.30;;;;;;;16.94;43.44;103666.78;5025326;28;20078;-60
2023/01/23 07:26:17;;;;;;;9.90;4.22;;;;;;;16.93;43.58;103673.13;5018978;28;20577;-61
2023/01/23 07:28:42;;;;;;;5.25;3.45;;;;;;;16.97;43.36;103673.81;5018281;28;20030;-61
2023/01/23 07:31:08;;;;;;;4.05;3.40;;;;;;;16.98;43.27;103675.53;5025311;28;20101;-59
2023/01/23 07:33:33;;;;;;;3.55;3.20;;;;;;;17.03;43.45;103676.13;5021025;28;20030;-56
2023/01/23 07:35:58;;;;;;;3.38;3.05;;;;;;;17.04;43.03;103685.94;5019317;28;20034;-61
2023/01/23 07:38:24;;;;;;;6.72;4.38;;;;;;;17.05;43.19;103684.13;5024310;28;20100;-61
2023/01/23 07:40:50;;;;;;;3.83;3.05;;;;;;;17.06;43.20;103680.47;5022660;28;20045;-61
2023/01/23 07:43:15;;;;;;;4.68;3.35;;;;;;;17.06;43.04;103684.03;5020038;28;20038;-61
2023/01/23 07:45:41;;;;;;;4.05;3.30;;;;;;;17.08;43.13;103686.66;5020843;28;20105;-61
2023/01/23 07:48:06;;;;;;;6.35;3.80;;;;;;;17.10;43.03;103680.22;5023571;28;20026;-61
2023/01/23 07:50:32;;;;;;;3.53;3.20;;;;;;;17.10;43.15;103677.53;5025473;28;20026;-56
2023/01/23 07:52:57;;;;;;;3.42;3.13;;;;;;;17.11;42.93;103690.00;5013401;28;20513;-61
2023/01/23 07:55:22;;;;;;;4.38;3.38;;;;;;;17.11;43.04;103694.50;5018880;28;20048;-61
2023/01/23 07:57:47;;;;;;;5.75;3.58;;;;;;;17.08;42.82;103683.97;5010365;28;20029;-60
2023/01/23 08:00:13;;;;;;;3.92;3.53;;;;;;;17.12;43.04;103685.47;5025086;28;20022;-61
2023/01/23 08:02:39;;;;;;;4.60;4.10;;;;;;;17.12;42.86;103693.53;5024575;28;20049;-60
2023/01/23 08:05:04;;;;;;;4.45;3.20;;;;;;;17.12;42.82;103689.06;5015001;28;20076;-61
2023/01/23 08:07:30;;;;;;;4.15;3.75;;;;;;;17.12;42.63;103694.44;5023244;28;20081;-60
2023/01/23 08:09:55;;;;;;;6.57;3.92;;;;;;;17.13;42.67;103698.00;5003162;28;20483;-53
2023/01/23 08:12:20;;;;;;;7.85;4.72;;;;;;;17.13;42.66;103698.84;5024293;28;20029;-61
2023/01/23 08:14:46;;;;;;;4.05;3.65;;;;;;;17.13;42.86;103692.63;5020276;28;20026;-59
2023/01/23 08:17:11;;;;;;;4.25;3.83;;;;;;;17.14;42.85;103697.88;5011062;28;20036;-60
2023/01/23 08:19:37;;;;;;;4.72;4.32;;;;;;;17.13;43.02;103687.25;5018250;28;20027;-60
2023/01/23 08:22:02;;;;;;;4.65;4.25;;;;;;;17.16;42.99;103698.69;5020318;28;20044;-59
2023/01/23 08:24:27;;;;;;;5.20;4.18;;;;;;;17.17;42.87;103692.34;5016135;28;20036;-60
2023/01/23 08:26:52;;;;;;;4.63;4.22;;;;;;;17.12;42.96;103686.38;5019548;28;20025;-59
2023/01/23 08:29:18;;;;;;;4.90;4.40;;;;;;;17.15;42.93;103690.69;5024601;28;20022;-60
2023/01/23 08:31:43;;;;;;;5.70;4.50;;;;;;;17.16;42.82;103695.09;5025767;28;20036;-61
2023/01/23 08:34:08;;;;;;;5.68;5.07;;;;;;;17.16;43.02;103695.09;5016337;28;20053;-62
2023/01/23 08:36:34;;;;;;;6.43;5.55;;;;;;;17.19;42.63;103694.94;5021684;28;20560;-61
2023/01/23 08:38:59;;;;;;;6.28;5.70;;;;;;;17.19;42.52;103706.56;5010828;28;20030;-60
2023/01/23 08:41:24;;;;;;;5.82;5.32;;;;;;;17.20;42.53;103708.31;5013162;28;20046;-61
2023/01/23 08:43:49;;;;;;;6.15;5.53;;;;;;;17.23;42.57;103712.63;5017376;28;20064;-62
2023/01/23 08:46:15;;;;;;;6.35;5.75;;;;;;;17.22;42.51;103713.59;5018021;28;20018;-60
2023/01/23 08:48:40;;;;;;;8.45;6.57;;;;;;;17.22;42.63;103716.28;5021341;28;20392;-61
2023/01/23 08:51:10;;;;;;;6.20;5.70;;;;;;;17.22;42.57;103717.13;5006344;28;20030;-60
2023/01/23 08:53:35;;;;;;;7.43;6.22;;;;;;;17.20;42.38;103720.84;5017418;28;20029;-61
2023/01/23 08:56:05;;;;;;;7.05;6.35;;;;;;;17.25;42.85;103729.56;5012092;28;20088;-61
2023/01/23 08:58:31;;;;;;;8.13;6.65;;;;;;;17.24;43.03;103719.72;5022021;28;20026;-60
2023/01/23 09:00:56;;;;;;;7.00;5.93;;;;;;;17.25;43.19;103726.84;5024460;28;20022;-61
2023/01/23 09:03:22;;;;;;;6.32;5.72;;;;;;;17.27;43.33;103716.00;5004707;28;20405;-60
2023/01/23 09:05:47;;;;;;;6.00;5.50;;;;;;;17.27;43.11;103708.81;5020510;28;20105;-59
2023/01/23 09:08:12;;;;;;;6.28;5.68;;;;;;;17.27;43.05;103718.69;5020181;28;20037;-60
2023/01/23 09:10:37;;;;;;;6.75;6.20;;;;;;;17.29;43.13;103724.81;5016646;28;20494;-60
2023/01/23 09:13:03;;;;;;;6.63;6.03;;;;;;;17.21;43.17;103715.41;5021330;28;20084;-60
2023/01/23 09:15:28;;;;;;;6.43;5.82;;;;;;;17.28;43.18;103720.41;5019063;28;20092;-59
2023/01/23 09:17:53;;;;;;;6.57;6.07;;;;;;;17.30;43.12;103722.06;5021189;28;20017;-61
2023/01/23 09:20:19;;;;;;;6.43;5.82;;;;;;;17.24;42.94;103709.84;5018237;28;20042;-61
2023/01/23 09:22:44;;;;;;;6.40;5.80;;;;;;;17.30;42.84;103726.59;5020638;28;20077;-61
2023/01/23 09:25:10;;;;;;;6.72;6.13;;;;;;;17.30;43.06;103726.59;5017755;28;20038;-60
2023/01/23 09:27:35;;;;;;;8.48;6.15;;;;;;;17.26;42.80;103722.34;5020474;28;20085;-59
2023/01/23 09:30:00;;;;;;;7.07;6.38;;;;;;;17.22;42.94;103725.19;5023138;28;20028;-59
2023/01/23 09:32:26;;;;;;;6.68;6.10;;;;;;;17.31;43.08;103737.25;5022510;28;20081;-61
2023/01/23 09:34:53;;;;;;;7.80;5.95;;;;;;;17.32;43.04;103733.59;5023916;28;20088;-60
2023/01/23 09:37:19;;;;;;;6.82;6.22;;;;;;;17.32;42.77;103730.91;5021787;28;20034;-57
2023/01/23 09:39:44;;;;;;;6.50;5.90;;;;;;;17.28;42.78;103720.41;5023778;28;20010;-60
2023/01/23 09:42:31;;;;;;;7.10;6.40;;;;;;;17.35;42.57;103733.41;5020303;28;20030;-60
2023/01/23 09:45:00;;;;;;;6.57;5.15;;;;;;;17.37;42.85;103733.31;5017640;28;20026;-61
2023/01/23 09:47:38;;;;;;;5.93;5.32;;;;;;;17.31;42.78;103729.19;4991806;28;20038;-60
2023/01/23 09:50:26;;;;;;;5.97;5.47;;;;;;;17.38;42.50;103740.47;5014349;28;20030;-61
2023/01/23 09:52:59;;;;;;;6.00;5.35;;;;;;;17.39;42.47;103729.59;5014511;28;20053;-62
2023/01/23 09:55:48;;;;;;;5.72;5.22;;;;;;;17.41;42.33;103730.34;5023958;28;20037;-60
2023/01/23 09:58:25;;;;;;;6.93;5.40;;;;;;;17.43;42.40;103730.28;5001852;28;20045;-54
2023/01/23 10:00:51;;;;;;;5.78;5.00;;;;;;;17.45;42.55;103739.97;5017964;28;20029;-59
2023/01/23 10:03:16;;;;;;;6.22;5.63;;;;;;;17.49;42.28;103737.97;5022773;28;20037;-55
2023/01/23 10:05:56;;;;;;;4.90;4.50;;;;;;;17.52;42.03;103742.31;5015614;28;20121;-59
2023/01/23 10:08:32;;;;;;;5.65;5.05;;;;;;;17.54;42.25;103749.34;4992083;28;20017;-59
2023/01/23 10:11:20;;;;;;;5.63;5.13;;;;;;;17.56;41.90;103742.06;4996033;28;20022;-60
2023/01/23 10:13:57;;;;;;;5.18;4.68;;;;;;;17.58;41.89;103747.34;5019225;28;20025;-60
2023/01/23 10:16:30;;;;;;;6.47;4.70;;;;;;;17.59;41.85;103741.88;5015193;28;20079;-60
2023/01/23 10:19:07;;;;;;;4.75;4.35;;;;;;;17.61;41.85;103747.16;5013809;28;20022;-60
2023/01/23 10:21:58;;;;;;;5.22;4.78;;;;;;;17.60;41.91;103743.59;5000089;28;20053;-61
2023/01/23 10:24:36;;;;;;;5.15;4.47;;;;;;;17.59;41.78;103739.19;4995518;28;20030;-60
2023/01/23 10:27:37;;;;;;;5.60;5.13;;;;;;;17.61;41.77;103742.63;5011679;28;20038;-59
2023/01/23 10:30:12;;;;;;;5.28;4.70;;;;;;;17.61;41.64;103737.25;5017209;28;20026;-61
2023/01/23 10:32:55;;;;;;;5.45;4.95;;;;;;;17.62;41.82;103738.13;4995406;28;20022;-59
2023/01/23 10:35:31;;;;;;;4.80;4.30;;;;;;;17.58;41.70;103742.81;5016839;28;20022;-60
2023/01/23 10:38:24;;;;;;;5.68;4.18;;;;;;;17.63;41.60;103742.56;5011523;28;20464;-61
2023/01/23 10:43:34;;;;;;;4.80;4.32;;;;;;;17.64;41.74;103733.53;4997322;28;20048;-61
2023/01/23 10:46:00;;;;;;;5.40;4.50;;;;;;;17.64;41.67;103731.69;4997537;28;20030;-61
2023/01/23 10:48:29;;;;;;;5.00;4.60;;;;;;;17.64;41.68;103733.53;4990688;28;20162;-60
2023/01/23 10:50:54;;;;;;;5.00;4.60;;;;;;;17.65;41.74;103729.88;4996888;28;20459;-61
2023/01/23 10:53:20;;;;;;;5.18;4.70;;;;;;;17.66;41.61;103735.16;4991704;28;20023;-61
2023/01/23 10:55:46;;;;;;;4.93;4.53;;;;;;;17.65;41.35;103729.88;5000983;28;20033;-63
2023/01/23 10:58:32;;;;;;;4.30;3.90;;;;;;;17.69;41.47;103729.59;4996866;28;20018;-61
2023/01/23 11:00:58;;;;;;;4.65;4.25;;;;;;;17.71;41.39;103734.88;4995733;28;20022;-61
2023/01/23 11:03:27;;;;;;;5.05;4.55;;;;;;;17.71;41.30;103740.25;5000741;28;20037;-61
2023/01/23 11:06:06;;;;;;;4.75;4.32;;;;;;;17.71;41.30;103737.56;4996534;28;20019;-61
2023/01/23 11:08:37;;;;;;;5.00;4.50;;;;;;;17.71;41.39;103737.56;5007724;28;20030;-61
2023/01/23 11:11:14;;;;;;;4.72;4.32;;;;;;;17.69;41.38;103737.66;4993087;28;20113;-62
2023/01/23 11:13:44;;;;;;;4.53;4.13;;;;;;;17.68;41.45;103738.63;5002062;28;20027;-61
2023/01/23 11:16:18;;;;;;;5.10;4.30;;;;;;;17.69;41.48;103739.50;4997759;28;20022;-61
2023/01/23 11:18:58;;;;;;;4.65;4.20;;;;;;;17.68;41.53;103744.03;5005067;28;20080;-60
2023/01/23 11:21:28;;;;;;;4.50;4.10;;;;;;;17.69;41.44;103753.81;5006707;28;20022;-60
2023/01/23 11:24:17;;;;;;;5.00;4.50;;;;;;;17.69;41.46;103752.94;5005266;28;20026;-60
2023/01/23 11:26:42;;;;;;;;;;;;;;;17.69;41.53;103755.66;4990894;28;20023;-61
2023/01/23 11:29:22;;;;;;;4.47;4.05;;;;;;;17.63;41.66;103748.81;4990169;28;19925;-60
2023/01/23 11:31:51;;;;;;;5.60;4.55;;;;;;;17.67;41.60;103757.53;4999475;28;20019;-60
2023/01/23 11:34:19;;;;;;;4.28;3.90;;;;;;;17.65;41.85;103754.97;5006629;28;20033;-60